createdAt,value
2023-09-04T00:00:02.425Z,1005.35
2023-09-04T00:01:02.506Z,1005.35
2023-09-04T00:02:02.431Z,1005.36
2023-09-04T00:03:02.516Z,1005.47
2023-09-04T00:04:02.435Z,1005.50
2023-09-04T00:05:02.390Z,1005.50
2023-09-04T00:06:02.404Z,1005.52
2023-09-04T00:07:02.383Z,1005.50
2023-09-04T00:08:02.498Z,1005.52
2023-09-04T00:09:02.349Z,1005.50
2023-09-04T00:10:02.357Z,1005.50
2023-09-04T00:11:02.376Z,1005.45
2023-09-04T00:12:02.368Z,1005.44
2023-09-04T00:13:02.357Z,1005.40
2023-09-04T00:14:02.313Z,1005.44
2023-09-04T00:15:02.334Z,1005.46
2023-09-04T00:16:02.336Z,1005.47
2023-09-04T00:17:02.299Z,1005.47
2023-09-04T00:18:02.339Z,1005.46
2023-09-04T00:19:02.320Z,1005.40
2023-09-04T00:20:02.296Z,1005.49
2023-09-04T00:21:02.288Z,1005.50
2023-09-04T00:22:02.270Z,1005.56
2023-09-04T00:23:02.276Z,1005.52
2023-09-04T00:24:02.281Z,1005.50
2023-09-04T00:25:02.250Z,1005.44
2023-09-04T00:26:02.234Z,1005.47
2023-09-04T00:27:02.226Z,1005.45
2023-09-04T00:28:02.230Z,1005.48
2023-09-04T00:29:02.231Z,1005.51
2023-09-04T00:30:02.204Z,1005.46
2023-09-04T00:31:02.216Z,1005.53
2023-09-04T00:32:02.253Z,1005.45
2023-09-04T00:33:02.267Z,1005.50
2023-09-04T00:34:02.212Z,1005.50
2023-09-04T00:35:02.197Z,1005.51
2023-09-04T00:36:02.171Z,1005.50
2023-09-04T00:37:02.161Z,1005.50
2023-09-04T00:38:02.172Z,1005.49
2023-09-04T00:39:02.144Z,1005.50
2023-09-04T00:40:02.277Z,1005.54
2023-09-04T00:41:02.137Z,1005.53
2023-09-04T00:42:02.130Z,1005.54
2023-09-04T00:43:02.119Z,1005.56
2023-09-04T00:44:02.118Z,1005.58
2023-09-04T00:45:02.110Z,1005.58
2023-09-04T00:46:02.129Z,1005.60
2023-09-04T00:47:02.100Z,1005.63
2023-09-04T00:48:02.123Z,1005.64
2023-09-04T00:49:02.092Z,1005.67
2023-09-04T00:50:02.081Z,1005.59
2023-09-04T00:51:02.088Z,1005.64
2023-09-04T00:52:02.065Z,1005.58
2023-09-04T00:53:02.059Z,1005.60
2023-09-04T00:54:02.039Z,1005.59
2023-09-04T00:55:02.038Z,1005.59
2023-09-04T00:56:02.249Z,1005.61
2023-09-04T00:57:02.042Z,1005.56
2023-09-04T00:58:02.014Z,1005.56
2023-09-04T00:59:02.014Z,1005.54
2023-09-04T01:00:02.012Z,1005.50
2023-09-04T01:01:02.005Z,1005.46
2023-09-04T01:02:02.031Z,1005.48
2023-09-04T01:03:02.000Z,1005.48
2023-09-04T01:04:02.096Z,1005.44
2023-09-04T01:05:01.985Z,1005.47
2023-09-04T01:06:01.980Z,1005.46
2023-09-04T01:07:01.950Z,1005.49
2023-09-04T01:08:01.958Z,1005.49
2023-09-04T01:09:01.950Z,1005.46
2023-09-04T01:10:01.957Z,1005.44
2023-09-04T01:11:01.916Z,1005.39
2023-09-04T01:12:01.913Z,1005.45
2023-09-04T01:13:01.934Z,1005.43
2023-09-04T01:14:01.925Z,1005.52
2023-09-04T01:15:01.923Z,1005.43
2023-09-04T01:16:01.887Z,1005.53
2023-09-04T01:17:01.950Z,1005.49
2023-09-04T01:18:01.938Z,1005.56
2023-09-04T01:19:02.996Z,1005.53
2023-09-04T01:20:01.865Z,1005.54
2023-09-04T01:21:01.865Z,1005.55
2023-09-04T01:22:01.861Z,1005.55
2023-09-04T01:23:01.880Z,1005.55
2023-09-04T01:24:01.891Z,1005.52
2023-09-04T01:25:02.856Z,1005.54
2023-09-04T01:26:01.819Z,1005.48
2023-09-04T01:27:01.816Z,1005.51
2023-09-04T01:28:01.811Z,1005.44
2023-09-04T01:29:01.823Z,1005.45
2023-09-04T01:30:01.803Z,1005.41
2023-09-04T01:31:01.908Z,1005.47
2023-09-04T01:32:01.849Z,1005.47
2023-09-04T01:33:01.840Z,1005.37
2023-09-04T01:34:01.772Z,1005.45
2023-09-04T01:35:01.773Z,1005.40
2023-09-04T01:36:01.747Z,1005.40
2023-09-04T01:37:01.783Z,1005.36
2023-09-04T01:38:01.751Z,1005.36
2023-09-04T01:39:01.768Z,1005.37
2023-09-04T01:40:01.731Z,1005.42
2023-09-04T01:41:01.722Z,1005.44
2023-09-04T01:42:01.731Z,1005.46
2023-09-04T01:43:01.713Z,1005.42
2023-09-04T01:44:01.694Z,1005.40
2023-09-04T01:45:01.708Z,1005.41
2023-09-04T01:46:01.737Z,1005.41
2023-09-04T01:47:01.707Z,1005.34
2023-09-04T01:48:01.706Z,1005.38
2023-09-04T01:49:01.664Z,1005.35
2023-09-04T01:50:01.659Z,1005.29
2023-09-04T01:51:01.668Z,1005.33
2023-09-04T01:52:01.737Z,1005.29
2023-09-04T01:53:01.678Z,1005.31
2023-09-04T01:54:01.633Z,1005.27
2023-09-04T01:55:01.637Z,1005.31
2023-09-04T01:56:01.622Z,1005.25
2023-09-04T01:57:01.620Z,1005.23
2023-09-04T01:58:01.621Z,1005.28
2023-09-04T01:59:01.619Z,1005.30
2023-09-04T02:00:01.624Z,1005.29
2023-09-04T02:01:01.605Z,1005.29
2023-09-04T02:02:01.728Z,1005.27
2023-09-04T02:03:01.700Z,1005.21
2023-09-04T02:04:01.608Z,1005.23
2023-09-04T02:05:01.569Z,1005.17
2023-09-04T02:06:01.578Z,1005.14
2023-09-04T02:07:01.572Z,1005.20
2023-09-04T02:08:02.060Z,1005.16
2023-09-04T02:09:01.602Z,1005.18
2023-09-04T02:10:01.540Z,1005.19
2023-09-04T02:11:01.527Z,1005.23
2023-09-04T02:12:01.528Z,1005.21
2023-09-04T02:13:03.336Z,1005.23
2023-09-04T02:14:02.510Z,1005.17
2023-09-04T02:15:01.508Z,1005.15
2023-09-04T02:16:01.528Z,1005.12
2023-09-04T02:17:01.508Z,1005.18
2023-09-04T02:18:01.563Z,1005.11
2023-09-04T02:19:01.490Z,1005.07
2023-09-04T02:20:01.479Z,1005.11
2023-09-04T02:21:01.470Z,1005.01
2023-09-04T02:22:01.492Z,1005.03
2023-09-04T02:23:01.473Z,1005.04
2023-09-04T02:24:01.465Z,1005.05
2023-09-04T02:25:01.456Z,1004.98
2023-09-04T02:26:01.447Z,1005.02
2023-09-04T02:27:01.454Z,1005.00
2023-09-04T02:28:01.461Z,1004.97
2023-09-04T02:29:01.423Z,1004.99
2023-09-04T02:30:01.414Z,1005.05
2023-09-04T02:31:01.401Z,1005.04
2023-09-04T02:32:01.427Z,1005.05
2023-09-04T02:33:01.545Z,1005.02
2023-09-04T02:34:01.421Z,1005.03
2023-09-04T02:35:01.399Z,1004.95
2023-09-04T02:36:01.376Z,1004.98
2023-09-04T02:37:01.366Z,1004.91
2023-09-04T02:38:01.354Z,1004.93
2023-09-04T02:39:01.361Z,1004.86
2023-09-04T02:40:01.336Z,1004.89
2023-09-04T02:41:01.340Z,1004.85
2023-09-04T02:42:01.361Z,1004.92
2023-09-04T02:43:01.332Z,1004.84
2023-09-04T02:44:01.320Z,1004.83
2023-09-04T02:45:01.325Z,1004.86
2023-09-04T02:46:01.345Z,1004.86
2023-09-04T02:47:01.315Z,1004.86
2023-09-04T02:48:01.336Z,1004.83
2023-09-04T02:49:01.296Z,1004.80
2023-09-04T02:50:01.326Z,1004.72
2023-09-04T02:51:01.303Z,1004.74
2023-09-04T02:52:01.260Z,1004.77
2023-09-04T02:53:02.248Z,1004.84
2023-09-04T02:54:01.251Z,1004.85
2023-09-04T02:55:01.265Z,1004.83
2023-09-04T02:56:01.273Z,1004.84
2023-09-04T02:57:01.242Z,1004.88
2023-09-04T02:58:02.328Z,1004.84
2023-09-04T02:59:02.232Z,1004.88
2023-09-04T03:00:01.297Z,1004.96
2023-09-04T03:01:01.273Z,1004.95
2023-09-04T03:02:01.232Z,1004.92
2023-09-04T03:03:01.277Z,1004.96
2023-09-04T03:04:01.197Z,1004.95
2023-09-04T03:05:01.191Z,1004.97
2023-09-04T03:06:01.216Z,1004.92
2023-09-04T03:07:01.173Z,1004.97
2023-09-04T03:08:01.184Z,1004.94
2023-09-04T03:09:01.160Z,1004.92
2023-09-04T03:10:01.183Z,1004.92
2023-09-04T03:11:01.152Z,1004.90
2023-09-04T03:12:01.171Z,1004.92
2023-09-04T03:13:01.138Z,1004.93
2023-09-04T03:14:01.138Z,1004.93
2023-09-04T03:15:01.107Z,1004.97
2023-09-04T03:16:01.186Z,1004.96
2023-09-04T03:17:01.131Z,1004.99
2023-09-04T03:18:01.151Z,1004.99
2023-09-04T03:19:01.105Z,1005.02
2023-09-04T03:20:01.097Z,1005.04
2023-09-04T03:21:01.080Z,1005.08
2023-09-04T03:22:01.102Z,1005.00
2023-09-04T03:23:01.103Z,1005.07
2023-09-04T03:24:01.058Z,1004.99
2023-09-04T03:25:01.044Z,1005.04
2023-09-04T03:26:01.049Z,1004.99
2023-09-04T03:27:01.050Z,1005.09
2023-09-04T03:28:01.053Z,1005.02
2023-09-04T03:29:01.036Z,1005.08
2023-09-04T03:30:01.035Z,1005.08
2023-09-04T03:31:01.040Z,1005.07
2023-09-04T03:32:01.014Z,1005.00
2023-09-04T03:33:01.040Z,1004.99
2023-09-04T03:34:01.025Z,1005.00
2023-09-04T03:35:00.991Z,1004.95
2023-09-04T03:36:00.983Z,1004.97
2023-09-04T03:37:00.984Z,1005.00
2023-09-04T03:38:00.967Z,1004.97
2023-09-04T03:39:01.003Z,1004.98
2023-09-04T03:40:00.950Z,1004.98
2023-09-04T03:41:00.948Z,1004.98
2023-09-04T03:42:00.956Z,1004.96
2023-09-04T03:43:00.947Z,1005.03
2023-09-04T03:44:00.941Z,1005.02
2023-09-04T03:45:00.956Z,1005.02
2023-09-04T03:46:00.964Z,1005.03
2023-09-04T03:47:00.937Z,1005.03
2023-09-04T03:48:00.986Z,1005.07
2023-09-04T03:49:00.938Z,1005.01
2023-09-04T03:50:00.917Z,1005.07
2023-09-04T03:51:00.930Z,1005.04
2023-09-04T03:52:00.909Z,1005.02
2023-09-04T03:53:00.898Z,1005.02
2023-09-04T03:54:03.319Z,1005.02
2023-09-04T03:55:01.858Z,1004.99
2023-09-04T03:56:00.852Z,1004.99
2023-09-04T03:57:00.863Z,1005.03
2023-09-04T03:58:00.865Z,1005.02
2023-09-04T03:59:00.838Z,1005.01
2023-09-04T04:00:00.916Z,1005.05
2023-09-04T04:01:00.885Z,1005.05
2023-09-04T04:02:00.813Z,1005.05
2023-09-04T04:03:00.951Z,1005.03
2023-09-04T04:04:00.904Z,1005.00
2023-09-04T04:05:00.835Z,1005.10
2023-09-04T04:06:00.791Z,1005.02
2023-09-04T04:07:00.792Z,1005.02
2023-09-04T04:08:00.788Z,1005.05
2023-09-04T04:09:00.783Z,1005.01
2023-09-04T04:10:01.826Z,1005.08
2023-09-04T04:11:00.753Z,1005.05
2023-09-04T04:12:00.744Z,1005.06
2023-09-04T04:13:00.824Z,1005.04
2023-09-04T04:14:00.737Z,1005.05
2023-09-04T04:15:00.740Z,1005.06
2023-09-04T04:16:00.815Z,1005.06
2023-09-04T04:17:02.077Z,1005.06
2023-09-04T04:18:01.746Z,1005.02
2023-09-04T04:19:00.701Z,1005.09
2023-09-04T04:20:00.714Z,1005.08
2023-09-04T04:21:00.737Z,1005.06
2023-09-04T04:22:00.720Z,1005.05
2023-09-04T04:23:00.687Z,1005.07
2023-09-04T04:24:00.673Z,1005.11
2023-09-04T04:25:00.676Z,1005.04
2023-09-04T04:26:00.660Z,1005.12
2023-09-04T04:27:00.660Z,1005.11
2023-09-04T04:28:00.649Z,1005.14
2023-09-04T04:29:00.637Z,1005.12
2023-09-04T04:30:00.654Z,1005.13
2023-09-04T04:31:00.627Z,1005.05
2023-09-04T04:32:00.665Z,1005.09
2023-09-04T04:33:00.632Z,1005.08
2023-09-04T04:34:00.599Z,1005.08
2023-09-04T04:35:00.643Z,1005.12
2023-09-04T04:36:00.602Z,1005.09
2023-09-04T04:37:00.617Z,1005.14
2023-09-04T04:38:00.581Z,1005.12
2023-09-04T04:39:00.582Z,1005.02
2023-09-04T04:40:00.598Z,1005.10
2023-09-04T04:41:00.559Z,1005.12
2023-09-04T04:42:00.547Z,1005.12
2023-09-04T04:43:00.552Z,1005.12
2023-09-04T04:44:00.573Z,1005.10
2023-09-04T04:45:00.527Z,1005.12
2023-09-04T04:46:00.596Z,1005.07
2023-09-04T04:47:00.528Z,1005.06
2023-09-04T04:48:00.566Z,1005.09
2023-09-04T04:49:00.513Z,1005.10
2023-09-04T04:50:00.559Z,1005.08
2023-09-04T04:51:00.497Z,1005.17
2023-09-04T04:52:00.484Z,1005.24
2023-09-04T04:53:00.494Z,1005.15
2023-09-04T04:54:00.519Z,1005.17
2023-09-04T04:55:00.471Z,1005.21
2023-09-04T04:56:00.454Z,1005.27
2023-09-04T04:57:00.446Z,1005.22
2023-09-04T04:58:00.454Z,1005.29
2023-09-04T04:59:00.463Z,1005.30
2023-09-04T05:00:00.452Z,1005.32
2023-09-04T05:01:00.456Z,1005.32
2023-09-04T05:02:00.411Z,1005.27
2023-09-04T05:03:00.490Z,1005.24
2023-09-04T05:04:00.404Z,1005.26
2023-09-04T05:05:00.400Z,1005.21
2023-09-04T05:06:01.385Z,1005.18
2023-09-04T05:07:01.407Z,1005.21
2023-09-04T05:08:00.386Z,1005.25
2023-09-04T05:09:00.369Z,1005.27
2023-09-04T05:10:00.391Z,1005.25
2023-09-04T05:11:00.358Z,1005.25
2023-09-04T05:12:00.371Z,1005.27
2023-09-04T05:13:00.340Z,1005.25
2023-09-04T05:14:00.333Z,1005.27
2023-09-04T05:15:00.345Z,1005.30
2023-09-04T05:16:00.357Z,1005.26
2023-09-04T05:17:00.320Z,1005.32
2023-09-04T05:18:00.337Z,1005.27
2023-09-04T05:19:00.300Z,1005.27
2023-09-04T05:20:00.316Z,1005.28
2023-09-04T05:21:00.290Z,1005.28
2023-09-04T05:22:00.313Z,1005.22
2023-09-04T05:23:02.752Z,1005.24
2023-09-04T05:24:00.300Z,1005.16
2023-09-04T05:25:00.265Z,1005.19
2023-09-04T05:26:00.268Z,1005.22
2023-09-04T05:27:00.253Z,1005.21
2023-09-04T05:28:00.275Z,1005.21
2023-09-04T05:29:00.247Z,1005.18
2023-09-04T05:30:00.266Z,1005.19
2023-09-04T05:31:00.276Z,1005.20
2023-09-04T05:32:00.239Z,1005.24
2023-09-04T05:33:00.236Z,1005.09
2023-09-04T05:34:00.222Z,1005.16
2023-09-04T05:35:00.261Z,1005.17
2023-09-04T05:36:00.209Z,1005.22
2023-09-04T05:37:00.191Z,1005.22
2023-09-04T05:38:00.183Z,1005.27
2023-09-04T05:39:00.172Z,1005.27
2023-09-04T05:40:00.162Z,1005.19
2023-09-04T05:41:00.185Z,1005.19
2023-09-04T05:42:00.167Z,1005.14
2023-09-04T05:43:00.168Z,1005.18
2023-09-04T05:44:00.153Z,1005.14
2023-09-04T05:45:00.133Z,1005.13
2023-09-04T05:46:00.156Z,1005.12
2023-09-04T05:47:00.129Z,1005.14
2023-09-04T05:48:00.168Z,1005.09
2023-09-04T05:49:00.106Z,1005.13
2023-09-04T05:50:00.152Z,1005.15
2023-09-04T05:51:00.098Z,1005.13
2023-09-04T05:52:00.115Z,1005.23
2023-09-04T05:53:00.098Z,1005.24
2023-09-04T05:54:00.081Z,1005.20
2023-09-04T05:55:00.093Z,1005.22
2023-09-04T05:56:00.064Z,1005.25
2023-09-04T05:57:00.071Z,1005.22
2023-09-04T05:58:00.067Z,1005.24
2023-09-04T05:59:00.052Z,1005.19
2023-09-04T06:00:00.070Z,1005.27
2023-09-04T06:01:00.214Z,1005.26
2023-09-04T06:02:00.038Z,1005.25
2023-09-04T06:03:00.145Z,1005.27
2023-09-04T06:04:00.102Z,1005.30
2023-09-04T06:05:00.016Z,1005.27
2023-09-04T06:06:00.007Z,1005.29
2023-09-04T06:06:59.990Z,1005.24
2023-09-04T06:07:59.999Z,1005.24
2023-09-04T06:09:00.005Z,1005.30
2023-09-04T06:09:59.973Z,1005.33
2023-09-04T06:10:59.968Z,1005.29
2023-09-04T06:11:59.985Z,1005.33
2023-09-04T06:12:59.973Z,1005.32
2023-09-04T06:13:59.959Z,1005.25
2023-09-04T06:14:59.963Z,1005.33
2023-09-04T06:15:59.937Z,1005.28
2023-09-04T06:16:59.992Z,1005.23
2023-09-04T06:17:59.960Z,1005.21
2023-09-04T06:18:59.937Z,1005.27
2023-09-04T06:19:59.897Z,1005.21
2023-09-04T06:20:59.903Z,1005.20
2023-09-04T06:21:59.908Z,1005.15
2023-09-04T06:22:59.886Z,1005.21
2023-09-04T06:23:59.880Z,1005.12
2023-09-04T06:24:59.879Z,1005.13
2023-09-04T06:25:59.862Z,1005.17
2023-09-04T06:26:59.880Z,1005.22
2023-09-04T06:27:59.848Z,1005.20
2023-09-04T06:28:59.856Z,1005.22
2023-09-04T06:29:59.852Z,1005.23
2023-09-04T06:30:59.869Z,1005.21
2023-09-04T06:31:59.897Z,1005.23
2023-09-04T06:32:59.847Z,1005.29
2023-09-04T06:33:59.817Z,1005.18
2023-09-04T06:34:59.805Z,1005.25
2023-09-04T06:35:59.804Z,1005.20
2023-09-04T06:36:59.794Z,1005.17
2023-09-04T06:37:59.812Z,1005.13
2023-09-04T06:38:59.789Z,1005.16
2023-09-04T06:39:59.757Z,1005.10
2023-09-04T06:40:59.777Z,1005.04
2023-09-04T06:41:59.750Z,1005.00
2023-09-04T06:42:59.744Z,1005.02
2023-09-04T06:43:59.762Z,1005.01
2023-09-04T06:44:59.725Z,1004.96
2023-09-04T06:46:00.785Z,1004.95
2023-09-04T06:47:01.804Z,1005.00
2023-09-04T06:47:59.726Z,1004.90
2023-09-04T06:48:59.698Z,1004.95
2023-09-04T06:49:59.710Z,1004.94
2023-09-04T06:50:59.680Z,1004.93
2023-09-04T06:51:59.674Z,1004.94
2023-09-04T06:52:59.666Z,1004.94
2023-09-04T06:53:59.723Z,1004.87
2023-09-04T06:54:59.649Z,1004.97
2023-09-04T06:55:59.642Z,1004.96
2023-09-04T06:56:59.655Z,1004.89
2023-09-04T06:57:59.635Z,1004.93
2023-09-04T06:58:59.660Z,1004.86
2023-09-04T06:59:59.721Z,1004.92
2023-09-04T07:00:59.609Z,1004.95
2023-09-04T07:01:59.633Z,1004.96
2023-09-04T07:02:59.699Z,1004.78
2023-09-04T07:03:59.581Z,1004.85
2023-09-04T07:04:59.661Z,1004.83
2023-09-04T07:05:59.600Z,1004.89
2023-09-04T07:06:59.572Z,1004.86
2023-09-04T07:07:59.577Z,1004.88
2023-09-04T07:08:59.579Z,1004.86
2023-09-04T07:09:59.573Z,1004.89
2023-09-04T07:10:59.544Z,1004.86
2023-09-04T07:11:59.542Z,1004.90
2023-09-04T07:12:59.550Z,1004.84
2023-09-04T07:13:59.556Z,1004.90
2023-09-04T07:14:59.528Z,1004.87
2023-09-04T07:15:59.635Z,1004.83
2023-09-04T07:17:08.785Z,1004.85
2023-09-04T07:18:01.538Z,1004.89
2023-09-04T07:18:59.492Z,1004.90
2023-09-04T07:19:59.501Z,1004.90
2023-09-04T07:20:59.479Z,1004.92
2023-09-04T07:21:59.503Z,1004.88
2023-09-04T07:23:14.316Z,1004.84
2023-09-04T07:24:01.468Z,1004.88
2023-09-04T07:24:59.457Z,1004.88
2023-09-04T07:25:59.437Z,1004.90
2023-09-04T07:26:59.450Z,1004.91
2023-09-04T07:27:59.447Z,1004.91
2023-09-04T07:28:59.448Z,1004.95
2023-09-04T07:29:59.414Z,1004.89
2023-09-04T07:30:59.411Z,1004.87
2023-09-04T07:31:59.440Z,1004.92
2023-09-04T07:32:59.403Z,1005.02
2023-09-04T07:33:59.412Z,1004.94
2023-09-04T07:34:59.382Z,1004.95
2023-09-04T07:35:59.391Z,1004.91
2023-09-04T07:36:59.364Z,1004.88
2023-09-04T07:37:59.371Z,1004.90
2023-09-04T07:38:59.397Z,1004.89
2023-09-04T07:39:59.339Z,1004.97
2023-09-04T07:40:59.339Z,1004.97
2023-09-04T07:41:59.344Z,1004.94
2023-09-04T07:42:59.353Z,1004.99
2023-09-04T07:43:59.341Z,1005.04
2023-09-04T07:44:59.322Z,1004.97
2023-09-04T07:45:59.325Z,1004.97
2023-09-04T07:46:59.292Z,1005.01
2023-09-04T07:47:59.355Z,1005.04
2023-09-04T07:48:59.309Z,1005.08
2023-09-04T07:49:59.266Z,1005.04
2023-09-04T07:50:59.278Z,1005.13
2023-09-04T07:51:59.255Z,1005.10
2023-09-04T07:52:59.250Z,1005.05
2023-09-04T07:53:59.236Z,1005.07
2023-09-04T07:54:59.246Z,1005.07
2023-09-04T07:55:59.222Z,1005.08
2023-09-04T07:56:59.205Z,1005.18
2023-09-04T07:57:59.213Z,1005.09
2023-09-04T07:58:59.202Z,1005.17
2023-09-04T07:59:59.228Z,1005.15
2023-09-04T08:00:59.241Z,1005.10
2023-09-04T08:01:59.192Z,1005.10
2023-09-04T08:02:59.333Z,1005.10
2023-09-04T08:03:59.238Z,1005.14
2023-09-04T08:04:59.239Z,1005.14
2023-09-04T08:05:59.161Z,1005.09
2023-09-04T08:06:59.162Z,1005.07
2023-09-04T08:07:59.145Z,1005.09
2023-09-04T08:08:59.155Z,1005.05
2023-09-04T08:09:59.129Z,1005.04
2023-09-04T08:10:59.142Z,1005.02
2023-09-04T08:11:59.102Z,1005.04
2023-09-04T08:13:00.102Z,1005.01
2023-09-04T08:13:59.103Z,1005.01
2023-09-04T08:14:59.102Z,1004.94
2023-09-04T08:15:59.105Z,1004.97
2023-09-04T08:16:59.161Z,1004.98
2023-09-04T08:17:59.095Z,1004.94
2023-09-04T08:18:59.081Z,1004.91
2023-09-04T08:19:59.070Z,1004.96
2023-09-04T08:20:59.083Z,1004.92
2023-09-04T08:21:59.055Z,1004.84
2023-09-04T08:22:59.042Z,1004.90
2023-09-04T08:23:59.054Z,1004.86
2023-09-04T08:24:59.024Z,1004.83
2023-09-04T08:25:59.030Z,1004.86
2023-09-04T08:26:59.014Z,1004.86
2023-09-04T08:28:00.008Z,1004.75
2023-09-04T08:28:59.021Z,1004.84
2023-09-04T08:29:59.021Z,1004.85
2023-09-04T08:30:59.018Z,1004.80
2023-09-04T08:31:58.972Z,1004.84
2023-09-04T08:32:59.006Z,1004.77
2023-09-04T08:33:58.970Z,1004.68
2023-09-04T08:34:58.972Z,1004.68
2023-09-04T08:35:58.978Z,1004.68
2023-09-04T08:36:58.933Z,1004.69
2023-09-04T08:37:58.944Z,1004.69
2023-09-04T08:38:59.018Z,1004.66
2023-09-04T08:39:58.937Z,1004.63
2023-09-04T08:40:58.920Z,1004.68
2023-09-04T08:41:58.905Z,1004.65
2023-09-04T08:42:58.909Z,1004.59
2023-09-04T08:43:58.941Z,1004.54
2023-09-04T08:44:58.900Z,1004.53
2023-09-04T08:45:58.891Z,1004.52
2023-09-04T08:46:58.876Z,1004.50
2023-09-04T08:47:58.996Z,1004.44
2023-09-04T08:48:58.886Z,1004.45
2023-09-04T08:49:58.891Z,1004.44
2023-09-04T08:50:58.849Z,1004.44
2023-09-04T08:51:58.845Z,1004.48
2023-09-04T08:52:58.840Z,1004.43
2023-09-04T08:54:01.032Z,1004.46
2023-09-04T08:54:59.845Z,1004.49
2023-09-04T08:55:58.893Z,1004.53
2023-09-04T08:56:58.835Z,1004.55
2023-09-04T08:57:58.814Z,1004.49
2023-09-04T08:58:58.797Z,1004.57
2023-09-04T08:59:58.782Z,1004.56
2023-09-04T09:00:58.824Z,1004.52
2023-09-04T09:01:58.774Z,1004.54
2023-09-04T09:03:01.785Z,1004.52
2023-09-04T09:04:00.039Z,1004.52
2023-09-04T09:04:58.792Z,1004.45
2023-09-04T09:05:58.798Z,1004.44
2023-09-04T09:06:58.749Z,1004.40
2023-09-04T09:07:58.770Z,1004.43
2023-09-04T09:08:58.733Z,1004.41
2023-09-04T09:09:58.723Z,1004.34
2023-09-04T09:10:58.755Z,1004.35
2023-09-04T09:11:58.734Z,1004.33
2023-09-04T09:12:58.719Z,1004.35
2023-09-04T09:13:58.693Z,1004.31
2023-09-04T09:14:58.723Z,1004.38
2023-09-04T09:15:58.760Z,1004.30
2023-09-04T09:16:58.714Z,1004.26
2023-09-04T09:17:58.722Z,1004.24
2023-09-04T09:18:58.682Z,1004.29
2023-09-04T09:19:58.657Z,1004.28
2023-09-04T09:20:58.669Z,1004.24
2023-09-04T09:21:59.680Z,1004.24
2023-09-04T09:22:58.644Z,1004.25
2023-09-04T09:23:58.634Z,1004.25
2023-09-04T09:24:58.648Z,1004.19
2023-09-04T09:25:58.628Z,1004.13
2023-09-04T09:26:58.647Z,1004.12
2023-09-04T09:27:58.633Z,1004.13
2023-09-04T09:28:58.628Z,1004.08
2023-09-04T09:29:58.616Z,1004.17
2023-09-04T09:30:58.657Z,1004.04
2023-09-04T09:31:59.707Z,1004.06
2023-09-04T09:32:58.645Z,1004.09
2023-09-04T09:33:58.621Z,1004.13
2023-09-04T09:34:58.609Z,1004.03
2023-09-04T09:35:58.562Z,1004.06
2023-09-04T09:36:58.592Z,1004.13
2023-09-04T09:37:58.555Z,1004.10
2023-09-04T09:38:58.548Z,1004.11
2023-09-04T09:39:58.544Z,1004.06
2023-09-04T09:40:58.645Z,1004.09
2023-09-04T09:41:58.520Z,1004.10
2023-09-04T09:42:58.512Z,1004.08
2023-09-04T09:43:58.545Z,1004.02
2023-09-04T09:44:58.550Z,1004.04
2023-09-04T09:45:58.527Z,1003.97
2023-09-04T09:46:58.520Z,1004.01
2023-09-04T09:47:58.513Z,1003.99
2023-09-04T09:48:58.531Z,1004.00
2023-09-04T09:49:58.497Z,1003.98
2023-09-04T09:50:58.470Z,1003.92
2023-09-04T09:51:58.468Z,1003.89
2023-09-04T09:52:58.460Z,1003.88
2023-09-04T09:53:58.439Z,1003.92
2023-09-04T09:54:58.496Z,1003.89
2023-09-04T09:55:58.459Z,1003.86
2023-09-04T09:56:58.455Z,1003.89
2023-09-04T09:57:58.442Z,1003.86
2023-09-04T09:58:58.423Z,1003.75
2023-09-04T09:59:58.851Z,1003.82
2023-09-04T10:00:58.474Z,1003.72
2023-09-04T10:01:58.411Z,1003.70
2023-09-04T10:02:58.554Z,1003.73
2023-09-04T10:03:58.419Z,1003.73
2023-09-04T10:04:58.399Z,1003.74
2023-09-04T10:05:58.394Z,1003.70
2023-09-04T10:06:58.642Z,1003.66
2023-09-04T10:07:58.363Z,1003.68
2023-09-04T10:08:58.358Z,1003.63
2023-09-04T10:09:58.353Z,1003.53
2023-09-04T10:10:58.377Z,1003.47
2023-09-04T10:11:58.365Z,1003.52
2023-09-04T10:12:58.352Z,1003.49
2023-09-04T10:13:58.348Z,1003.44
2023-09-04T10:14:58.342Z,1003.46
2023-09-04T10:15:58.423Z,1003.44
2023-09-04T10:16:58.341Z,1003.49
2023-09-04T10:17:58.366Z,1003.43
2023-09-04T10:18:58.344Z,1003.43
2023-09-04T10:20:00.451Z,1003.42
2023-09-04T10:20:59.318Z,1003.47
2023-09-04T10:21:58.320Z,1003.31
2023-09-04T10:22:58.303Z,1003.36
2023-09-04T10:23:58.309Z,1003.37
2023-09-04T10:24:58.285Z,1003.33
2023-09-04T10:25:58.274Z,1003.33
2023-09-04T10:26:58.274Z,1003.41
2023-09-04T10:27:58.280Z,1003.36
2023-09-04T10:28:58.270Z,1003.23
2023-09-04T10:29:58.248Z,1003.21
2023-09-04T10:30:58.283Z,1003.22
2023-09-04T10:31:58.251Z,1003.23
2023-09-04T10:32:58.330Z,1003.19
2023-09-04T10:33:58.245Z,1003.19
2023-09-04T10:34:58.268Z,1003.20
2023-09-04T10:35:58.307Z,1003.21
2023-09-04T10:36:58.235Z,1003.20
2023-09-04T10:37:58.219Z,1003.20
2023-09-04T10:38:58.231Z,1003.23
2023-09-04T10:40:00.453Z,1003.29
2023-09-04T10:40:59.217Z,1003.23
2023-09-04T10:41:58.224Z,1003.23
2023-09-04T10:42:58.199Z,1003.22
2023-09-04T10:43:58.207Z,1003.24
2023-09-04T10:44:58.177Z,1003.27
2023-09-04T10:45:58.222Z,1003.25
2023-09-04T10:46:58.204Z,1003.26
2023-09-04T10:47:58.238Z,1003.24
2023-09-04T10:48:58.170Z,1003.27
2023-09-04T10:49:58.144Z,1003.22
2023-09-04T10:50:58.154Z,1003.22
2023-09-04T10:51:58.233Z,1003.22
2023-09-04T10:52:58.167Z,1003.24
2023-09-04T10:53:58.149Z,1003.25
2023-09-04T10:54:58.148Z,1003.27
2023-09-04T10:55:58.108Z,1003.18
2023-09-04T10:56:58.108Z,1003.15
2023-09-04T10:57:58.129Z,1003.13
2023-09-04T10:58:58.096Z,1003.12
2023-09-04T10:59:58.096Z,1003.06
2023-09-04T11:00:58.103Z,1003.03
2023-09-04T11:01:58.123Z,1003.08
2023-09-04T11:02:58.141Z,1003.04
2023-09-04T11:03:58.103Z,1003.01
2023-09-04T11:04:58.063Z,1003.01
2023-09-04T11:05:58.078Z,1003.04
2023-09-04T11:06:58.045Z,1002.96
2023-09-04T11:07:58.035Z,1002.94
2023-09-04T11:08:58.079Z,1002.90
2023-09-04T11:09:58.041Z,1002.95
2023-09-04T11:10:58.028Z,1003.03
2023-09-04T11:11:58.018Z,1002.95
2023-09-04T11:12:58.148Z,1002.88
2023-09-04T11:13:58.019Z,1002.86
2023-09-04T11:14:58.237Z,1002.87
2023-09-04T11:15:58.086Z,1002.87
2023-09-04T11:16:58.027Z,1002.86
2023-09-04T11:17:58.047Z,1002.78
2023-09-04T11:18:57.979Z,1002.83
2023-09-04T11:19:57.990Z,1002.85
2023-09-04T11:20:58.113Z,1002.81
2023-09-04T11:21:57.962Z,1002.85
2023-09-04T11:22:57.995Z,1002.84
2023-09-04T11:23:58.009Z,1002.86
2023-09-04T11:24:58.059Z,1002.86
2023-09-04T11:25:58.004Z,1002.86
2023-09-04T11:26:57.955Z,1002.82
2023-09-04T11:27:57.938Z,1002.86
2023-09-04T11:28:57.983Z,1002.78
2023-09-04T11:29:57.946Z,1002.77
2023-09-04T11:30:57.986Z,1002.85
2023-09-04T11:32:07.919Z,1002.87
2023-09-04T11:32:59.941Z,1002.84
2023-09-04T11:33:57.903Z,1002.78
2023-09-04T11:34:57.894Z,1002.81
2023-09-04T11:35:58.012Z,1002.80
2023-09-04T11:36:57.940Z,1002.70
2023-09-04T11:37:58.607Z,1002.71
2023-09-04T11:38:58.883Z,1002.77
2023-09-04T11:40:01.042Z,1002.78
2023-09-04T11:40:58.895Z,1002.68
2023-09-04T11:41:57.867Z,1002.64
2023-09-04T11:43:07.299Z,1002.68
2023-09-04T11:43:57.885Z,1002.74
2023-09-04T11:44:57.893Z,1002.70
2023-09-04T11:45:57.946Z,1002.67
2023-09-04T11:46:57.850Z,1002.71
2023-09-04T11:47:57.915Z,1002.75
2023-09-04T11:48:57.871Z,1002.71
2023-09-04T11:49:57.847Z,1002.73
2023-09-04T11:50:57.838Z,1002.82
2023-09-04T11:51:57.917Z,1002.79
2023-09-04T11:52:57.815Z,1002.80
2023-09-04T11:53:57.809Z,1002.83
2023-09-04T11:54:58.013Z,1002.77
2023-09-04T11:55:57.794Z,1002.77
2023-09-04T11:56:57.811Z,1002.75
2023-09-04T11:57:57.790Z,1002.78
2023-09-04T11:58:57.792Z,1002.79
2023-09-04T11:59:57.823Z,1002.84
2023-09-04T12:00:57.791Z,1002.87
2023-09-04T12:01:57.835Z,1002.83
2023-09-04T12:02:57.813Z,1002.81
2023-09-04T12:03:57.794Z,1002.82
2023-09-04T12:04:57.796Z,1002.85